• Join FlightAware (Why Join?)
  • Login
  • US Flag GB Flag 
05:16 EST


 

Airport Tracker/Info


-or-


 

Live Flight TrackerFlight Track Log ✈ EJA929 ✈ 11-Jul-2013 ✈ KHOU - KOKC

Flight Track Log - Related Links

Times and Time Zones

All times are in EDT time to prevent confusion due to time zone crossing. See the EJA929 flight status page for this flight to view local times or setup timezone preferences in your user account.

Time Position Orientation Groundspeed Altitude Reporting Facility
EDT Latitude Longitude Course Direction KTS MPH feet Rate Location/Type
05:23 29.6306 -95.2608 52° Northeast 196 226 1,000  Level Houston Center
05:24 29.6550 -95.2247 52° Northeast 247 284 4,100 4,018 Climbing Houston Center
05:25 29.7272 -95.2486 344° North 274 315 8,300 4,215 Climbing Houston Center
05:26 29.8044 -95.2872 337° Northwest 296 341 12,600 4,066 Climbing Houston Center
05:27 29.8900 -95.3297 337° Northwest 326 375 16,500 3,650 Climbing Houston Center
05:28 29.9817 -95.3706 339° North 349 402 19,900 3,150 Climbing Houston Center
05:29 30.0733 -95.4064 341° North 348 400 22,800 2,700 Climbing Houston Center
05:30 30.1661 -95.4428 341° North 350 403 25,300 2,479 Climbing Houston Center
05:31 30.2611 -95.4792 342° North 356 410 27,800 2,083 Climbing Houston Center
05:32 30.3592 -95.5183 341° North 367 422 29,500 1,700 Climbing Houston Center
05:33 30.4647 -95.5578 342° North 392 451 31,200 1,686 Climbing Houston Center
05:34 30.5742 -95.6006 341° North 414 476 32,900 1,388 Climbing Houston Center
05:35 30.6847 -95.6436 341° North 422 486 34,000 550 Climbing Houston Center
05:36 30.8083 -95.6922 341° North 450 518 34,000  Level Houston Center
05:37 30.9428 -95.7450 341° North 488 562 34,000  Level Houston Center
05:38 31.0761 -95.7964 342° North 499 574 34,000  Level Houston Center
05:39 31.2056 -95.8483 341° North 495 570 34,000  Level Houston Center
05:40 31.3311 -95.8975 342° North 483 556 34,000  Level Houston Center
05:41 31.4556 -95.9472 341° North 474 545 34,000  Level Houston Center
05:42 31.5814 -95.9978 341° North 473 544 34,000  Level Houston Center
05:43 31.7075 -96.0478 341° North 476 548 34,000  Level Houston Center
05:44 31.8303 -96.0972 341° North 468 539 34,000  Level Houston Center
05:45 31.9533 -96.1467 341° North 466 536 34,000  Level Houston Center
05:46 32.0775 -96.1967 341° North 467 537 34,000  Level Houston Center
05:47 32.2028 -96.2475 341° North 471 542 34,000  Level Houston Center
05:48 32.3294 -96.2997 341° North 477 549 34,000  Level Houston Center
05:50 32.4847 -96.3667 340° North 472 543 34,000  Level Fort Worth Center
05:51 32.6081 -96.4144 342° North 467 537 34,000  Level Fort Worth Center
05:52 32.7358 -96.4675 341° North 473 544 34,000  Level Fort Worth Center
05:53 32.8617 -96.5206 340° North 473 544 34,000  Level Fort Worth Center
05:54 32.9872 -96.5714 341° North 473 544 34,000  Level Fort Worth Center
05:55 33.1128 -96.6222 341° North 473 544 34,000  Level Fort Worth Center
05:56 33.2383 -96.6733 341° North 473 544 34,000  Level Fort Worth Center
05:57 33.3533 -96.7222 340° North 468 539 34,000  Level Fort Worth Center
05:58 33.4747 -96.7733 341° North 468 539 34,000  Level Fort Worth Center
05:59 33.6003 -96.8275 340° North 468 539 34,000  Level Fort Worth Center
06:00 33.7256 -96.8789 341° North 468 539 34,000  Level Fort Worth Center
06:01 33.8511 -96.9333 340° North 468 539 34,000 -150 Level Fort Worth Center
06:02 33.9764 -96.9853 341° North 468 539 33,700 -1,200 Descending Fort Worth Center
06:03 34.1039 -97.0472 338° Northwest 458 527 31,600 -2,300 Descending Fort Worth Center
06:04 34.2272 -97.0969 342° North 458 527 29,100 -2,500 Descending Fort Worth Center
06:05 34.3506 -97.1519 340° North 458 527 26,600 -2,550 Descending Fort Worth Center
06:06 34.4736 -97.2044 341° North 463 533 24,000 -2,550 Descending Fort Worth Center
06:07 34.5925 -97.2544 341° North 463 533 21,500 -2,500 Descending Fort Worth Center
06:08 34.7053 -97.3025 341° North 451 519 19,000 -2,500 Descending Fort Worth Center
06:09 34.8200 -97.3528 340° North 446 513 16,500 -2,481 Descending Fort Worth Center
06:09 34.9036 -97.3908 340° North 431 496 14,700 -2,457 Descending Fort Worth Center
06:10 35.0017 -97.4339 340° North 363 418 12,200 -2,459 Descending Fort Worth Center
06:11 35.0850 -97.4694 341° North 290 334 9,700 -2,479 Descending Fort Worth Center
06:12 35.1581 -97.5050 338° Northwest 272 313 7,200 -1,934 Descending Fort Worth Center
06:13 35.2331 -97.5331 343° North 262 302 5,800 -1,537 Descending Fort Worth Center
06:14 35.3061 -97.5408 355° North 265 305 4,100 -893 Descending Fort Worth Center
06:15 35.3750 -97.5461 356° North 248 285 4,000 -295 Descending Fort Worth Center
06:16 35.4353 -97.5461 360° North 200 230 3,500 -645 Descending Fort Worth Center
06:17 35.4603 -97.5894 305° West 164 189 2,700 -893 Descending Fort Worth Center
06:18 35.4247 -97.6072 202° Southwest 132 152 1,700 -984 Descending Fort Worth Center